createdAt,value
2022-08-31T00:00:19.041Z,13.34
2022-08-31T00:03:04.373Z,13.29
2022-08-31T00:05:31.267Z,13.23
2022-08-31T00:07:58.106Z,13.19
2022-08-31T00:10:32.966Z,13.12
2022-08-31T00:13:05.072Z,13.05
2022-08-31T00:15:35.359Z,13.00
2022-08-31T00:18:02.668Z,12.93
2022-08-31T00:20:33.839Z,12.88
2022-08-31T00:23:05.922Z,12.81
2022-08-31T00:25:34.469Z,12.79
2022-08-31T00:28:02.209Z,12.74
2022-08-31T00:30:29.767Z,12.71
2022-08-31T00:32:58.355Z,12.69
2022-08-31T00:35:28.139Z,12.67
2022-08-31T00:37:55.538Z,12.65
2022-08-31T00:40:23.816Z,12.64
2022-08-31T00:42:50.930Z,12.63
2022-08-31T00:45:17.981Z,12.60
2022-08-31T00:47:44.772Z,12.58
2022-08-31T00:50:15.055Z,12.58
2022-08-31T00:52:48.401Z,12.57
2022-08-31T00:55:23.355Z,12.57
2022-08-31T00:57:55.815Z,12.56
2022-08-31T01:00:26.548Z,12.57
2022-08-31T01:02:55.086Z,12.59
2022-08-31T01:05:22.203Z,12.59
2022-08-31T01:07:50.430Z,12.59
2022-08-31T01:10:20.782Z,12.59
2022-08-31T01:12:50.800Z,12.59
2022-08-31T01:15:18.228Z,12.57
2022-08-31T01:17:48.352Z,12.56
2022-08-31T01:20:48.657Z,12.51
2022-08-31T01:23:25.013Z,12.43
2022-08-31T01:25:55.487Z,12.37
2022-08-31T01:28:22.874Z,12.31
2022-08-31T01:31:06.152Z,12.25
2022-08-31T01:33:35.148Z,12.16
2022-08-31T01:36:02.090Z,12.09
2022-08-31T01:39:04.749Z,12.02
2022-08-31T01:41:31.965Z,11.94
2022-08-31T01:44:00.597Z,11.90
2022-08-31T01:46:28.787Z,11.87
2022-08-31T01:48:55.664Z,11.83
2022-08-31T01:51:23.112Z,11.80
2022-08-31T01:53:52.692Z,11.78
2022-08-31T01:56:24.750Z,11.79
2022-08-31T01:58:51.747Z,11.81
2022-08-31T02:01:56.407Z,11.87
2022-08-31T02:04:27.148Z,11.91
2022-08-31T02:06:58.345Z,11.92
2022-08-31T02:09:25.354Z,11.93
2022-08-31T02:11:52.622Z,11.91
2022-08-31T02:14:20.742Z,11.89
2022-08-31T02:16:49.524Z,11.84
2022-08-31T02:19:16.757Z,11.81
2022-08-31T02:21:43.742Z,11.78
2022-08-31T02:24:12.462Z,11.75
2022-08-31T02:26:40.507Z,11.74
2022-08-31T02:29:08.065Z,11.73
2022-08-31T02:31:36.131Z,11.72
2022-08-31T02:34:03.207Z,11.74
2022-08-31T02:36:32.335Z,11.78
2022-08-31T02:39:04.062Z,11.80
2022-08-31T02:41:33.379Z,11.80
2022-08-31T02:44:00.137Z,11.77
2022-08-31T02:46:27.617Z,11.76
2022-08-31T02:49:15.042Z,11.75
2022-08-31T02:51:43.649Z,11.78
2022-08-31T02:54:12.495Z,11.77
2022-08-31T02:56:40.791Z,11.78
2022-08-31T02:59:08.531Z,11.76
2022-08-31T03:01:36.124Z,11.75
2022-08-31T03:04:03.669Z,11.75
2022-08-31T03:06:31.831Z,11.76
2022-08-31T03:09:00.308Z,11.80
2022-08-31T03:11:27.358Z,11.83
2022-08-31T03:13:58.450Z,11.83
2022-08-31T03:16:26.199Z,11.87
2022-08-31T03:18:53.261Z,11.91
2022-08-31T03:21:20.487Z,11.94
2022-08-31T03:23:47.358Z,12.00
2022-08-31T03:26:14.650Z,12.07
2022-08-31T03:28:41.713Z,12.17
2022-08-31T03:31:40.829Z,12.32
2022-08-31T03:34:07.906Z,12.41
2022-08-31T03:36:34.861Z,12.49
2022-08-31T03:39:02.162Z,12.69
2022-08-31T03:41:29.096Z,12.95
2022-08-31T03:43:56.903Z,13.23
2022-08-31T03:46:24.067Z,13.47
2022-08-31T03:48:51.236Z,13.73
2022-08-31T03:51:20.184Z,14.01
2022-08-31T03:53:47.259Z,14.38
2022-08-31T03:56:18.335Z,14.73
2022-08-31T03:58:46.271Z,15.09
2022-08-31T04:01:28.890Z,15.50
2022-08-31T04:04:14.454Z,15.90
2022-08-31T04:07:07.244Z,16.35
2022-08-31T04:09:54.297Z,16.67
2022-08-31T04:12:53.045Z,17.13
2022-08-31T04:15:38.492Z,17.53
2022-08-31T04:18:24.190Z,18.02
2022-08-31T04:20:50.975Z,18.43
2022-08-31T04:23:18.126Z,18.83
2022-08-31T04:25:51.341Z,19.30
2022-08-31T04:28:18.270Z,19.80
2022-08-31T04:30:45.413Z,20.31
2022-08-31T04:33:15.693Z,20.84
2022-08-31T04:35:43.775Z,21.38
2022-08-31T04:38:11.242Z,21.71
2022-08-31T04:40:42.306Z,21.99
2022-08-31T04:43:10.119Z,22.34
2022-08-31T04:45:41.419Z,22.65
2022-08-31T04:48:09.042Z,23.06
2022-08-31T04:50:42.316Z,23.36
2022-08-31T04:53:09.949Z,23.71
2022-08-31T04:55:41.722Z,24.06
2022-08-31T04:58:12.769Z,24.43
2022-08-31T05:01:18.430Z,24.84
2022-08-31T05:04:29.190Z,24.94
2022-08-31T05:07:14.519Z,25.16
2022-08-31T05:09:41.785Z,25.42
2022-08-31T05:12:08.718Z,25.63
2022-08-31T05:14:37.249Z,25.83
2022-08-31T05:17:41.300Z,25.92
2022-08-31T05:20:27.030Z,26.26
2022-08-31T05:22:53.901Z,26.35
2022-08-31T05:26:17.012Z,26.66
2022-08-31T05:28:43.882Z,27.05
2022-08-31T05:31:30.179Z,27.43
2022-08-31T05:34:00.897Z,27.78
2022-08-31T05:36:54.490Z,28.07
2022-08-31T05:39:21.716Z,28.40
2022-08-31T05:41:48.848Z,28.61
2022-08-31T05:44:17.181Z,28.85
2022-08-31T05:46:44.964Z,29.31
2022-08-31T05:49:39.064Z,29.68
2022-08-31T05:52:26.978Z,30.04
2022-08-31T05:54:54.515Z,29.85
2022-08-31T05:57:24.549Z,29.06
2022-08-31T05:59:53.022Z,28.10
2022-08-31T06:02:21.177Z,27.57
2022-08-31T06:04:48.548Z,27.72
2022-08-31T06:07:20.255Z,28.37
2022-08-31T06:09:53.723Z,29.14
2022-08-31T06:12:25.418Z,29.89
2022-08-31T06:15:11.043Z,30.39
2022-08-31T06:17:57.741Z,31.01
2022-08-31T06:20:26.073Z,31.44
2022-08-31T06:22:53.694Z,31.76
2022-08-31T06:26:01.273Z,32.20
2022-08-31T06:28:32.759Z,32.52
2022-08-31T06:31:02.228Z,32.49
2022-08-31T06:33:29.800Z,32.53
2022-08-31T06:36:15.592Z,32.00
2022-08-31T06:39:01.541Z,31.57
2022-08-31T06:41:48.585Z,31.22
2022-08-31T06:44:34.313Z,30.88
2022-08-31T06:47:33.749Z,30.43
2022-08-31T08:09:24.659Z,31.80
2022-08-31T08:12:10.679Z,32.03
2022-08-31T08:14:44.522Z,31.88
2022-08-31T08:17:48.414Z,33.15
2022-08-31T08:20:34.658Z,34.07
2022-08-31T08:23:26.718Z,34.83
2022-08-31T08:26:33.841Z,35.34
2022-08-31T08:29:25.306Z,35.70
2022-08-31T08:32:14.234Z,36.25
2022-08-31T08:34:44.753Z,37.46
2022-08-31T08:37:13.603Z,38.04
2022-08-31T08:40:01.807Z,38.68
2022-08-31T08:42:33.824Z,38.89
2022-08-31T08:45:20.346Z,38.46
2022-08-31T08:47:50.044Z,38.16
2022-08-31T08:50:19.348Z,38.17
2022-08-31T08:52:47.304Z,38.28
2022-08-31T08:55:18.530Z,38.33
2022-08-31T08:57:52.440Z,38.08
2022-08-31T09:00:38.749Z,38.15
2022-08-31T09:03:15.759Z,38.14
2022-08-31T09:06:54.695Z,37.17
2022-08-31T09:09:34.821Z,36.44
2022-08-31T09:12:30.959Z,36.00
2022-08-31T09:15:36.830Z,35.72
2022-08-31T09:18:26.464Z,35.62
2022-08-31T09:21:22.323Z,35.08
2022-08-31T09:24:08.273Z,34.80
2022-08-31T09:27:18.709Z,35.22
2022-08-31T09:29:56.585Z,35.19
2022-08-31T09:33:05.546Z,35.05
2022-08-31T09:35:56.699Z,34.44
2022-08-31T09:38:39.630Z,33.90
2022-08-31T09:41:33.653Z,33.33
2022-08-31T09:44:31.687Z,32.92
2022-08-31T09:47:02.897Z,33.75
2022-08-31T09:49:37.489Z,34.44
2022-08-31T09:52:49.330Z,34.08
2022-08-31T09:55:46.944Z,33.48
2022-08-31T09:58:14.631Z,32.94
2022-08-31T10:00:44.921Z,32.98
2022-08-31T10:03:19.093Z,32.99
2022-08-31T10:05:48.847Z,33.09
2022-08-31T10:08:19.492Z,33.47
2022-08-31T10:10:49.638Z,33.87
2022-08-31T10:13:22.120Z,33.94
2022-08-31T10:16:01.225Z,33.68
2022-08-31T10:18:39.632Z,33.50
2022-08-31T10:21:16.237Z,33.33
2022-08-31T10:24:15.179Z,32.77
2022-08-31T10:27:05.369Z,32.13
2022-08-31T10:30:01.181Z,31.57
2022-08-31T10:32:42.413Z,31.17
2022-08-31T10:36:10.811Z,30.91
2022-08-31T10:38:41.698Z,30.90
2022-08-31T10:41:42.366Z,30.97
2022-08-31T10:44:52.263Z,32.01
2022-08-31T10:47:33.074Z,33.57
2022-08-31T10:50:29.735Z,34.79
2022-08-31T10:53:45.992Z,35.22
2022-08-31T10:56:37.485Z,35.17
2022-08-31T10:59:30.845Z,35.14
2022-08-31T11:03:02.080Z,35.47
2022-08-31T11:05:51.384Z,35.52
2022-08-31T11:08:49.982Z,35.78
2022-08-31T11:12:05.034Z,35.89
2022-08-31T11:15:09.875Z,36.08
2022-08-31T11:18:14.759Z,35.89
2022-08-31T11:21:06.687Z,35.59
2022-08-31T11:24:20.606Z,35.32
2022-08-31T11:26:57.130Z,34.95
2022-08-31T11:30:04.994Z,35.07
2022-08-31T11:33:14.342Z,35.74
2022-08-31T11:36:08.871Z,36.64
2022-08-31T11:39:06.357Z,37.46
2022-08-31T11:41:47.723Z,37.32
2022-08-31T11:44:34.284Z,36.50
2022-08-31T11:47:06.917Z,36.09
2022-08-31T11:49:51.706Z,35.52
2022-08-31T11:52:38.597Z,34.90
2022-08-31T11:55:52.229Z,34.26
2022-08-31T11:58:23.573Z,33.98
2022-08-31T12:00:58.774Z,34.17
2022-08-31T12:04:11.548Z,34.88
2022-08-31T12:07:22.730Z,34.96
2022-08-31T12:10:14.122Z,34.98
2022-08-31T12:13:26.083Z,34.56
2022-08-31T12:16:18.025Z,33.90
2022-08-31T12:19:34.167Z,33.47
2022-08-31T12:22:31.424Z,32.85
2022-08-31T12:25:20.450Z,32.19
2022-08-31T12:28:10.893Z,31.58
2022-08-31T12:30:47.828Z,31.14
2022-08-31T12:33:27.779Z,30.67
2022-08-31T12:36:10.581Z,30.30
2022-08-31T12:39:10.678Z,29.91
2022-08-31T12:41:45.749Z,29.71
2022-08-31T12:44:23.463Z,29.60
2022-08-31T12:47:24.175Z,29.48
2022-08-31T12:50:10.319Z,29.48
2022-08-31T12:52:46.916Z,29.58
2022-08-31T12:55:51.113Z,29.67
2022-08-31T12:58:36.722Z,29.98
2022-08-31T13:01:10.600Z,30.17
2022-08-31T13:03:41.390Z,30.28
2022-08-31T13:06:15.774Z,30.43
2022-08-31T13:09:06.826Z,30.62
2022-08-31T13:11:53.658Z,30.71
2022-08-31T13:14:25.150Z,31.00
2022-08-31T13:17:15.453Z,31.31
2022-08-31T13:20:01.726Z,32.01
2022-08-31T13:22:39.614Z,32.32
2022-08-31T13:25:36.355Z,32.28
2022-08-31T13:28:38.312Z,31.86
2022-08-31T13:31:28.594Z,31.50
2022-08-31T13:34:01.938Z,31.12
2022-08-31T13:36:36.050Z,30.67
2022-08-31T13:39:31.661Z,30.09
2022-08-31T13:42:09.287Z,29.53
2022-08-31T13:44:40.460Z,29.02
2022-08-31T13:47:20.390Z,28.47
2022-08-31T13:49:49.952Z,28.09
2022-08-31T13:52:22.580Z,27.74
2022-08-31T13:55:06.123Z,27.39
2022-08-31T13:57:38.523Z,27.12
2022-08-31T14:00:33.329Z,26.88
2022-08-31T14:03:33.298Z,26.67
2022-08-31T14:06:23.882Z,26.53
2022-08-31T14:08:55.235Z,26.48
2022-08-31T14:11:22.483Z,26.47
2022-08-31T14:13:50.889Z,26.51
2022-08-31T14:16:32.575Z,26.53
2022-08-31T14:19:00.587Z,26.64
2022-08-31T14:21:31.120Z,26.74
2022-08-31T14:24:03.505Z,26.82
2022-08-31T14:26:34.063Z,26.88
2022-08-31T14:29:10.714Z,26.90
2022-08-31T14:31:49.287Z,26.91
2022-08-31T14:34:25.513Z,26.93
2022-08-31T14:37:02.592Z,26.91
2022-08-31T14:39:31.453Z,26.93
2022-08-31T14:42:14.549Z,26.88
2022-08-31T14:44:46.096Z,26.75
2022-08-31T14:47:13.217Z,26.55
2022-08-31T14:49:45.635Z,26.29
2022-08-31T14:52:13.230Z,26.05
2022-08-31T14:54:41.109Z,25.85
2022-08-31T14:57:12.421Z,25.65
2022-08-31T14:59:43.067Z,25.47
2022-08-31T15:02:12.990Z,25.26
2022-08-31T15:04:45.534Z,25.08
2022-08-31T15:07:14.559Z,24.87
2022-08-31T15:09:43.251Z,24.72
2022-08-31T15:12:14.935Z,24.62
2022-08-31T15:14:44.963Z,24.48
2022-08-31T15:17:19.814Z,24.39
2022-08-31T15:19:50.382Z,24.29
2022-08-31T15:22:18.305Z,24.20
2022-08-31T15:24:45.544Z,24.08
2022-08-31T15:27:15.462Z,24.04
2022-08-31T15:29:45.673Z,23.96
2022-08-31T15:32:16.918Z,23.87
2022-08-31T15:34:53.621Z,23.78
2022-08-31T15:37:21.568Z,23.68
2022-08-31T15:39:50.765Z,23.55
2022-08-31T15:42:22.953Z,23.39
2022-08-31T15:44:57.323Z,23.20
2022-08-31T15:47:45.535Z,23.04
2022-08-31T15:50:13.346Z,22.89
2022-08-31T15:52:51.705Z,22.81
2022-08-31T15:55:23.932Z,22.70
2022-08-31T15:57:54.578Z,22.55
2022-08-31T16:00:27.200Z,22.44
2022-08-31T16:02:57.453Z,22.25
2022-08-31T16:05:28.335Z,22.06
2022-08-31T16:07:55.696Z,21.92
2022-08-31T16:10:23.908Z,21.78
2022-08-31T16:12:52.218Z,21.62
2022-08-31T16:15:22.247Z,21.48
2022-08-31T16:17:51.685Z,21.31
2022-08-31T16:20:18.562Z,21.16
2022-08-31T16:22:45.671Z,21.00
2022-08-31T16:25:14.457Z,20.85
2022-08-31T16:27:43.574Z,20.68
2022-08-31T16:30:12.336Z,20.53
2022-08-31T16:32:39.543Z,20.35
2022-08-31T16:35:07.145Z,20.19
2022-08-31T16:37:35.529Z,20.00
2022-08-31T16:40:03.452Z,19.82
2022-08-31T16:42:30.460Z,19.61
2022-08-31T16:45:01.755Z,19.39
2022-08-31T16:47:29.556Z,19.21
2022-08-31T16:50:00.704Z,19.01
2022-08-31T16:52:29.252Z,18.81
2022-08-31T16:54:57.503Z,18.63
2022-08-31T16:57:27.626Z,18.43
2022-08-31T16:59:56.632Z,18.24
2022-08-31T17:02:24.469Z,18.06
2022-08-31T17:04:53.460Z,17.89
2022-08-31T17:07:24.811Z,17.70
2022-08-31T17:09:56.578Z,17.50
2022-08-31T17:12:26.144Z,17.35
2022-08-31T17:14:53.374Z,17.18
2022-08-31T17:17:22.975Z,17.06
2022-08-31T17:19:52.219Z,16.93
2022-08-31T17:22:26.937Z,16.81
2022-08-31T17:24:58.237Z,16.67
2022-08-31T17:27:26.479Z,16.58
2022-08-31T17:29:56.051Z,16.47
2022-08-31T17:32:25.199Z,16.39
2022-08-31T17:34:54.504Z,16.31
2022-08-31T17:37:36.566Z,16.19
2022-08-31T17:40:08.252Z,16.08
2022-08-31T17:42:35.674Z,15.99
2022-08-31T17:45:05.962Z,15.89
2022-08-31T17:47:33.188Z,15.81
2022-08-31T17:50:00.292Z,15.73
2022-08-31T17:52:27.779Z,15.62
2022-08-31T17:54:55.343Z,15.51
2022-08-31T17:57:25.348Z,15.40
2022-08-31T17:59:54.921Z,15.29
2022-08-31T18:02:32.506Z,15.19
2022-08-31T18:05:01.316Z,15.08
2022-08-31T18:07:29.141Z,14.98
2022-08-31T18:09:56.044Z,14.89
2022-08-31T18:12:25.703Z,14.80
2022-08-31T18:14:53.816Z,14.70
2022-08-31T18:17:24.251Z,14.64
2022-08-31T18:19:51.111Z,14.58
2022-08-31T18:22:19.849Z,14.51
2022-08-31T18:24:46.853Z,14.44
2022-08-31T18:27:17.283Z,14.36
2022-08-31T18:29:45.200Z,14.29
2022-08-31T18:32:12.790Z,14.20
2022-08-31T18:34:47.346Z,14.11
2022-08-31T18:37:16.289Z,14.03
2022-08-31T18:40:05.343Z,13.94
2022-08-31T18:42:51.965Z,13.85
2022-08-31T18:45:19.584Z,13.77
2022-08-31T18:48:23.703Z,13.71
2022-08-31T18:50:46.839Z,13.62
2022-08-31T18:53:29.575Z,13.57
2022-08-31T18:55:59.482Z,13.48
2022-08-31T18:58:26.447Z,13.41
2022-08-31T19:00:58.358Z,13.37
2022-08-31T19:03:27.498Z,13.33
2022-08-31T19:05:54.945Z,13.27
2022-08-31T19:08:23.094Z,13.20
2022-08-31T19:10:51.353Z,13.12
2022-08-31T19:13:18.388Z,13.06
2022-08-31T19:15:45.927Z,12.98
2022-08-31T19:18:13.249Z,12.91
2022-08-31T19:20:40.890Z,12.86
2022-08-31T19:23:08.275Z,12.79
2022-08-31T19:25:43.141Z,12.73
2022-08-31T19:28:10.144Z,12.68
2022-08-31T19:30:38.306Z,12.63
2022-08-31T19:33:11.495Z,12.60
2022-08-31T19:35:38.430Z,12.55
2022-08-31T19:38:05.848Z,12.51
2022-08-31T19:40:39.401Z,12.47
2022-08-31T19:45:54.677Z,12.38
2022-08-31T19:48:23.525Z,12.37
2022-08-31T19:50:52.130Z,12.37
2022-08-31T19:53:22.246Z,12.41
2022-08-31T19:55:51.601Z,12.43
2022-08-31T19:58:26.365Z,12.46
2022-08-31T20:01:00.681Z,12.49
2022-08-31T20:03:28.324Z,12.52
2022-08-31T20:05:56.994Z,12.56
2022-08-31T20:08:23.873Z,12.58
2022-08-31T20:10:54.739Z,12.60
2022-08-31T20:13:25.262Z,12.58
2022-08-31T20:15:53.002Z,12.55
2022-08-31T20:18:20.777Z,12.51
2022-08-31T20:20:50.440Z,12.49
2022-08-31T20:23:21.269Z,12.47
2022-08-31T20:25:51.150Z,12.44
2022-08-31T20:28:26.302Z,12.42
2022-08-31T20:30:55.333Z,12.39
2022-08-31T20:33:22.648Z,12.34
2022-08-31T20:35:49.404Z,12.29
2022-08-31T20:38:17.759Z,12.25
2022-08-31T20:40:47.444Z,12.21
2022-08-31T20:43:15.009Z,12.14
2022-08-31T20:45:42.509Z,12.08
2022-08-31T20:48:28.676Z,12.03
2022-08-31T20:50:56.522Z,11.95
2022-08-31T20:53:35.990Z,11.81
2022-08-31T20:56:16.906Z,11.64
2022-08-31T20:58:45.662Z,11.48
2022-08-31T21:01:14.205Z,11.35
2022-08-31T21:03:41.800Z,11.26
2022-08-31T21:06:12.193Z,11.18
2022-08-31T21:08:42.650Z,11.08
2022-08-31T21:11:17.853Z,11.02
2022-08-31T21:13:46.520Z,10.98
2022-08-31T21:16:15.172Z,10.96
2022-08-31T21:18:42.126Z,10.93
2022-08-31T21:21:13.081Z,10.89
2022-08-31T21:23:40.036Z,10.86
2022-08-31T21:26:09.888Z,10.83
2022-08-31T21:28:40.183Z,10.82
2022-08-31T21:31:15.748Z,10.81
2022-08-31T21:33:46.445Z,10.79
2022-08-31T21:36:15.260Z,10.74
2022-08-31T21:38:43.100Z,10.72
2022-08-31T21:41:12.341Z,10.72
2022-08-31T21:43:40.253Z,10.71
2022-08-31T21:46:11.993Z,10.69
2022-08-31T21:48:41.597Z,10.62
2022-08-31T21:51:14.422Z,10.58
2022-08-31T21:53:42.053Z,10.55
2022-08-31T21:56:09.478Z,10.53
2022-08-31T21:58:36.840Z,10.53
2022-08-31T22:01:04.738Z,10.53
2022-08-31T22:03:36.189Z,10.53
2022-08-31T22:06:07.635Z,10.53
2022-08-31T22:08:35.899Z,10.52
2022-08-31T22:11:08.201Z,10.52
2022-08-31T22:13:37.165Z,10.50
2022-08-31T22:16:14.098Z,10.47
2022-08-31T22:19:06.424Z,10.46
2022-08-31T22:21:35.291Z,10.44
2022-08-31T22:24:07.462Z,10.42
2022-08-31T22:26:44.413Z,10.40
2022-08-31T22:29:13.640Z,10.37
2022-08-31T22:31:41.440Z,10.35
2022-08-31T22:34:10.575Z,10.35
2022-08-31T22:36:38.129Z,10.40
2022-08-31T22:39:12.171Z,10.48
2022-08-31T22:41:42.233Z,10.55
2022-08-31T22:44:13.100Z,10.64
2022-08-31T22:46:40.337Z,10.71
2022-08-31T22:49:09.915Z,10.78
2022-08-31T22:51:39.383Z,10.84
2022-08-31T22:54:07.033Z,10.90
2022-08-31T22:56:36.642Z,10.95
2022-08-31T22:59:09.648Z,11.03
2022-08-31T23:01:41.924Z,11.09
2022-08-31T23:04:12.673Z,11.12
2022-08-31T23:06:39.787Z,11.16
2022-08-31T23:09:10.398Z,11.20
2022-08-31T23:11:38.276Z,11.22
2022-08-31T23:14:10.257Z,11.24
2022-08-31T23:16:38.691Z,11.24
2022-08-31T23:19:10.743Z,11.24
2022-08-31T23:21:43.090Z,11.23
2022-08-31T23:24:12.653Z,11.21
2022-08-31T23:26:40.767Z,11.19
2022-08-31T23:29:09.289Z,11.17
2022-08-31T23:31:37.914Z,11.15
2022-08-31T23:34:09.781Z,11.13
2022-08-31T23:36:36.560Z,11.10
2022-08-31T23:39:04.946Z,11.11
2022-08-31T23:41:34.830Z,11.13
2022-08-31T23:44:09.239Z,11.12
2022-08-31T23:46:38.107Z,11.14
2022-08-31T23:49:08.733Z,11.20
2022-08-31T23:51:35.865Z,11.25
2022-08-31T23:54:07.061Z,11.32
2022-08-31T23:56:37.398Z,11.39
2022-08-31T23:59:09.644Z,11.45
